Time,TemperatureF,DewpointF,PressureIn,WindDirection,WindDirectionDegrees,WindSpeedMPH,WindSpeedGustMPH,Humidity,HourlyPrecipIn,Conditions,Clouds,dailyrainin,SoftwareType,DateUTC
2013-03-07 00:01:00,26.0,25.0,30.36,WNW,294,2.0,5.0,94,0.00,,,0.05,,2013-03-07 06:01:00,
2013-03-07 00:11:00,26.0,25.0,30.36,WNW,294,2.0,5.0,94,0.00,,,0.05,,2013-03-07 06:11:00,
2013-03-07 00:21:00,26.0,25.0,30.37,WNW,287,3.0,6.0,94,0.00,,,0.05,,2013-03-07 06:21:00,
2013-03-07 00:32:00,26.0,25.0,30.37,WNW,298,2.0,6.0,94,0.00,,,0.05,,2013-03-07 06:32:00,
2013-03-07 00:42:00,26.0,25.0,30.37,WNW,298,2.0,6.0,94,0.00,,,0.05,,2013-03-07 06:42:00,
2013-03-07 00:51:00,25.0,24.0,30.37,WNW,302,3.0,7.0,94,0.00,,,0.05,,2013-03-07 06:51:00,
2013-03-07 01:01:00,25.0,23.0,30.37,NW,313,3.0,6.0,93,0.00,,,0.05,,2013-03-07 07:01:00,
2013-03-07 01:11:00,25.0,23.0,30.37,NW,313,3.0,6.0,93,0.00,,,0.05,,2013-03-07 07:11:00,
2013-03-07 01:21:00,25.0,23.0,30.37,WNW,298,3.0,6.0,93,0.00,,,0.05,,2013-03-07 07:21:00,
2013-03-07 01:32:00,25.0,23.0,30.38,WNW,288,2.0,6.0,93,0.00,,,0.05,,2013-03-07 07:32:00,
2013-03-07 01:42:00,25.0,23.0,30.38,WNW,288,2.0,6.0,93,0.00,,,0.05,,2013-03-07 07:42:00,
2013-03-07 01:52:00,25.0,23.0,30.38,NW,311,3.0,6.0,93,0.00,,,0.05,,2013-03-07 07:52:00,
2013-03-07 02:02:00,25.0,23.0,30.38,WNW,299,4.0,8.0,93,0.00,,,0.05,,2013-03-07 08:02:00,
2013-03-07 02:12:00,25.0,23.0,30.38,WNW,299,4.0,8.0,93,0.00,,,0.05,,2013-03-07 08:12:00,
2013-03-07 02:22:00,25.0,23.0,30.39,West,279,5.0,9.0,93,0.00,,,0.05,,2013-03-07 08:22:00,
2013-03-07 02:33:00,25.0,23.0,30.39,WNW,296,5.0,9.0,93,0.00,,,0.05,,2013-03-07 08:33:00,
2013-03-07 02:43:00,25.0,23.0,30.39,WNW,296,5.0,9.0,93,0.00,,,0.05,,2013-03-07 08:43:00,
2013-03-07 02:53:00,25.0,23.0,30.39,NW,307,4.0,8.0,93,0.00,,,0.05,,2013-03-07 08:53:00,
2013-03-07 03:03:00,25.0,23.0,30.39,West,277,4.0,11.0,93,0.00,,,0.05,,2013-03-07 09:03:00,
2013-03-07 03:13:00,25.0,23.0,30.39,West,277,4.0,11.0,93,0.00,,,0.05,,2013-03-07 09:13:00,
2013-03-07 03:23:00,25.0,23.0,30.39,NW,307,3.0,7.0,93,0.00,,,0.05,,2013-03-07 09:23:00,
2013-03-07 03:33:00,25.0,23.0,30.40,WNW,291,5.0,8.0,93,0.00,,,0.05,,2013-03-07 09:33:00,
2013-03-07 03:42:00,25.0,23.0,30.40,WNW,291,5.0,8.0,93,0.00,,,0.05,,2013-03-07 09:42:00,
2013-03-07 03:52:00,25.0,23.0,30.40,WNW,302,4.0,8.0,93,0.00,,,0.05,,2013-03-07 09:52:00,
2013-03-07 04:03:00,25.0,23.0,30.40,NW,323,3.0,6.0,93,0.00,,,0.05,,2013-03-07 10:03:00,
2013-03-07 04:13:00,25.0,23.0,30.40,NW,323,3.0,6.0,93,0.00,,,0.05,,2013-03-07 10:13:00,
2013-03-07 04:23:00,25.0,24.0,30.40,WNW,286,4.0,6.0,94,0.00,,,0.05,,2013-03-07 10:23:00,
2013-03-07 04:33:00,25.0,23.0,30.40,NNW,331,3.0,7.0,93,0.00,,,0.05,,2013-03-07 10:33:00,
2013-03-07 04:42:00,25.0,23.0,30.40,NNW,331,3.0,7.0,93,0.00,,,0.05,,2013-03-07 10:42:00,
2013-03-07 04:52:00,25.0,23.0,30.40,WNW,300,3.0,7.0,93,0.00,,,0.05,,2013-03-07 10:52:00,
2013-03-07 05:03:00,25.0,24.0,30.40,NW,306,2.0,6.0,94,0.00,,,0.05,,2013-03-07 11:03:00,
2013-03-07 05:12:00,25.0,24.0,30.40,NW,306,2.0,6.0,94,0.00,,,0.05,,2013-03-07 11:12:00,
2013-03-07 05:23:00,25.0,23.0,30.40,NW,306,3.0,6.0,93,0.00,,,0.05,,2013-03-07 11:23:00,
2013-03-07 05:33:00,25.0,23.0,30.40,NW,326,1.0,4.0,93,0.00,,,0.05,,2013-03-07 11:33:00,
2013-03-07 05:43:00,25.0,23.0,30.40,NW,326,1.0,4.0,93,0.00,,,0.05,,2013-03-07 11:43:00,
2013-03-07 05:53:00,25.0,23.0,30.40,WNW,302,2.0,4.0,93,0.00,,,0.05,,2013-03-07 11:53:00,
2013-03-07 06:03:00,25.0,23.0,30.40,NW,315,0.0,4.0,93,0.00,,,0.05,,2013-03-07 12:03:00,
2013-03-07 06:12:00,25.0,23.0,30.40,NW,315,0.0,4.0,93,0.00,,,0.05,,2013-03-07 12:12:00,
2013-03-07 06:33:00,25.0,23.0,30.41,West,278,1.0,5.0,93,0.00,,,0.05,,2013-03-07 12:33:00,
2013-03-07 06:42:00,25.0,23.0,30.41,West,278,1.0,5.0,93,0.00,,,0.05,,2013-03-07 12:42:00,
2013-03-07 06:52:00,25.0,23.0,30.42,West,265,0.0,2.0,93,0.00,,,0.05,,2013-03-07 12:52:00,
2013-03-07 07:02:00,25.0,23.0,30.42,NW,321,2.0,6.0,93,0.00,,,0.05,,2013-03-07 13:02:00,
2013-03-07 07:12:00,25.0,23.0,30.42,NW,321,2.0,6.0,93,0.00,,,0.05,,2013-03-07 13:12:00,
2013-03-07 07:22:00,25.0,23.0,30.42,NW,305,1.0,4.0,93,0.00,,,0.05,,2013-03-07 13:22:00,
2013-03-07 07:32:00,25.0,23.0,30.42,West,281,1.0,4.0,93,0.00,,,0.05,,2013-03-07 13:32:00,
2013-03-07 07:42:00,25.0,23.0,30.42,West,281,1.0,4.0,93,0.00,,,0.05,,2013-03-07 13:42:00,
2013-03-07 07:52:00,26.0,24.0,30.43,West,279,1.0,4.0,93,0.00,,,0.05,,2013-03-07 13:52:00,
2013-03-07 08:02:00,26.0,24.0,30.44,NNW,332,3.0,5.0,93,0.00,,,0.05,,2013-03-07 14:02:00,
2013-03-07 08:12:00,26.0,24.0,30.44,NNW,332,3.0,5.0,93,0.00,,,0.05,,2013-03-07 14:12:00,
2013-03-07 08:22:00,26.0,24.0,30.43,NW,315,0.0,5.0,93,0.00,,,0.05,,2013-03-07 14:22:00,
2013-03-07 08:33:00,27.0,25.0,30.44,WNW,292,1.0,4.0,93,0.00,,,0.05,,2013-03-07 14:33:00,
2013-03-07 08:42:00,27.0,25.0,30.44,WNW,292,1.0,4.0,93,0.00,,,0.05,,2013-03-07 14:42:00,
2013-03-07 08:53:00,27.0,25.0,30.44,WNW,292,1.0,4.0,93,0.00,,,0.05,,2013-03-07 14:53:00,
2013-03-07 09:03:00,27.0,25.0,30.45,WNW,294,2.0,5.0,92,0.00,,,0.05,,2013-03-07 15:03:00,
2013-03-07 09:12:00,27.0,25.0,30.45,WNW,294,2.0,5.0,92,0.00,,,0.05,,2013-03-07 15:12:00,
2013-03-07 09:23:00,27.0,25.0,30.45,WNW,291,5.0,7.0,91,0.00,,,0.05,,2013-03-07 15:23:00,
2013-03-07 09:32:00,28.0,26.0,30.45,WNW,299,1.0,7.0,92,0.00,,,0.05,,2013-03-07 15:32:00,
2013-03-07 09:42:00,28.0,26.0,30.45,WNW,299,1.0,7.0,92,0.00,,,0.05,,2013-03-07 15:42:00,
2013-03-07 09:52:00,28.0,26.0,30.45,WNW,286,2.0,5.0,91,0.00,,,0.05,,2013-03-07 15:52:00,
2013-03-07 10:02:00,29.0,27.0,30.45,WNW,293,3.0,6.0,91,0.00,,,0.05,,2013-03-07 16:02:00,
2013-03-07 10:12:00,29.0,27.0,30.45,WNW,293,3.0,6.0,91,0.00,,,0.05,,2013-03-07 16:12:00,
2013-03-07 10:23:00,29.0,27.0,30.45,NW,304,3.0,5.0,91,0.00,,,0.05,,2013-03-07 16:23:00,
2013-03-07 10:32:00,29.0,26.0,30.46,NNW,330,2.0,6.0,90,0.00,,,0.05,,2013-03-07 16:32:00,
2013-03-07 10:42:00,29.0,26.0,30.46,NNW,330,2.0,6.0,90,0.00,,,0.05,,2013-03-07 16:42:00,
2013-03-07 10:52:00,29.0,27.0,30.46,West,281,2.0,7.0,91,0.00,,,0.05,,2013-03-07 16:52:00,
2013-03-07 11:02:00,30.0,27.0,30.46,WNW,291,3.0,6.0,90,0.00,,,0.05,,2013-03-07 17:02:00,
2013-03-07 11:12:00,30.0,27.0,30.46,WNW,291,3.0,6.0,90,0.00,,,0.05,,2013-03-07 17:12:00,
2013-03-07 11:22:00,31.0,28.0,30.46,WNW,290,1.0,5.0,90,0.00,,,0.05,,2013-03-07 17:22:00,
2013-03-07 11:33:00,32.0,29.0,30.45,NNE,13,0.0,3.0,90,0.00,,,0.05,,2013-03-07 17:33:00,
2013-03-07 11:43:00,32.0,29.0,30.45,NNE,13,0.0,3.0,90,0.00,,,0.05,,2013-03-07 17:43:00,
2013-03-07 11:53:00,33.0,30.0,30.45,South,169,0.0,4.0,88,0.00,,,0.05,,2013-03-07 17:53:00,
2013-03-07 12:03:00,34.0,30.0,30.45,NW,304,0.0,2.0,85,0.00,,,0.05,,2013-03-07 18:03:00,
2013-03-07 12:12:00,34.0,30.0,30.45,NW,304,0.0,2.0,85,0.00,,,0.05,,2013-03-07 18:12:00,
2013-03-07 12:22:00,35.0,30.0,30.45,West,275,0.0,1.0,83,0.00,,,0.05,,2013-03-07 18:22:00,
2013-03-07 12:32:00,33.0,30.0,30.44,NNE,32,0.0,4.0,87,0.00,,,0.04,,2013-03-07 18:32:00,
2013-03-07 12:42:00,33.0,30.0,30.44,NNE,32,0.0,4.0,87,0.00,,,0.04,,2013-03-07 18:42:00,
2013-03-07 12:52:00,35.0,30.0,30.44,ESE,107,0.0,2.0,83,0.00,,,0.04,,2013-03-07 18:52:00,
2013-03-07 13:03:00,35.0,29.0,30.43,SE,144,0.0,2.0,80,0.00,,,0.04,,2013-03-07 19:03:00,
2013-03-07 13:12:00,35.0,29.0,30.43,SE,144,0.0,2.0,80,0.00,,,0.04,,2013-03-07 19:12:00,
2013-03-07 13:23:00,33.0,28.0,30.43,ESE,120,1.0,3.0,83,0.00,,,0.04,,2013-03-07 19:23:00,
2013-03-07 13:34:00,33.0,28.0,30.42,ESE,120,0.0,2.0,83,0.00,,,0.02,,2013-03-07 19:34:00,
2013-03-07 13:43:00,33.0,28.0,30.42,ESE,120,0.0,2.0,83,0.00,,,0.02,,2013-03-07 19:43:00,
2013-03-07 13:52:00,33.0,28.0,30.42,ESE,120,1.0,3.0,83,0.00,,,0.02,,2013-03-07 19:52:00,
2013-03-07 14:02:00,33.0,28.0,30.41,SE,145,1.0,5.0,83,0.00,,,0.02,,2013-03-07 20:02:00,
2013-03-07 14:13:00,33.0,28.0,30.41,SE,145,1.0,5.0,83,0.00,,,0.02,,2013-03-07 20:13:00,
2013-03-07 14:22:00,33.0,28.0,30.41,SE,142,2.0,5.0,82,0.00,,,0.02,,2013-03-07 20:22:00,
2013-03-07 14:33:00,34.0,29.0,30.41,SSE,148,0.0,1.0,82,0.00,,,0.01,,2013-03-07 20:33:00,
2013-03-07 14:42:00,34.0,29.0,30.41,SSE,148,0.0,1.0,82,0.00,,,0.01,,2013-03-07 20:42:00,
2013-03-07 14:53:00,34.0,29.0,30.42,SSE,148,0.0,2.0,81,0.00,,,0.01,,2013-03-07 20:53:00,
2013-03-07 15:02:00,33.0,28.0,30.42,South,170,1.0,8.0,82,0.00,,,0.01,,2013-03-07 21:02:00,
2013-03-07 15:12:00,33.0,28.0,30.42,South,170,1.0,8.0,82,0.00,,,0.01,,2013-03-07 21:12:00,
2013-03-07 15:22:00,33.0,28.0,30.42,SSE,147,0.0,3.0,82,0.00,,,0.01,,2013-03-07 21:22:00,
2013-03-07 15:32:00,33.0,28.0,30.42,SSE,147,0.0,2.0,82,0.00,,,0.00,,2013-03-07 21:32:00,
2013-03-07 15:42:00,33.0,28.0,30.42,SSE,147,0.0,2.0,82,0.00,,,0.00,,2013-03-07 21:42:00,
2013-03-07 15:52:00,32.0,27.0,30.43,East,98,0.0,5.0,81,0.00,,,0.00,,2013-03-07 21:52:00,
2013-03-07 16:02:00,33.0,28.0,30.42,East,98,0.0,2.0,82,0.00,,,0.00,,2013-03-07 22:02:00,
2013-03-07 16:12:00,33.0,28.0,30.42,East,98,0.0,2.0,82,0.00,,,0.00,,2013-03-07 22:12:00,
2013-03-07 16:22:00,33.0,28.0,30.43,ESE,119,0.0,4.0,81,0.00,,,0.00,,2013-03-07 22:22:00,
2013-03-07 16:32:00,33.0,28.0,30.43,ESE,119,0.0,1.0,80,0.00,,,0.00,,2013-03-07 22:32:00,
2013-03-07 16:42:00,33.0,28.0,30.43,ESE,119,0.0,1.0,80,0.00,,,0.00,,2013-03-07 22:42:00,
2013-03-07 16:53:00,33.0,28.0,30.42,ESE,119,0.0,2.0,81,0.00,,,0.00,,2013-03-07 22:53:00,
2013-03-07 17:03:00,32.0,27.0,30.42,East,96,2.0,5.0,82,0.00,,,0.00,,2013-03-07 23:03:00,
2013-03-07 17:12:00,32.0,27.0,30.42,East,96,2.0,5.0,82,0.00,,,0.00,,2013-03-07 23:12:00,
2013-03-07 17:22:00,32.0,27.0,30.42,ESE,113,2.0,5.0,80,0.00,,,0.00,,2013-03-07 23:22:00,
2013-03-07 17:43:00,32.0,27.0,30.42,ESE,105,2.0,6.0,80,0.00,,,0.00,,2013-03-07 23:43:00,
2013-03-07 17:52:00,32.0,27.0,30.42,East,90,2.0,3.0,82,0.00,,,0.00,,2013-03-07 23:52:00,
2013-03-07 18:04:00,31.0,26.0,30.42,ESE,108,3.0,7.0,82,0.00,,,0.00,,2013-03-08 00:04:00,
2013-03-07 18:12:00,31.0,26.0,30.42,ESE,108,3.0,7.0,82,0.00,,,0.00,,2013-03-08 00:12:00,
2013-03-07 18:23:00,31.0,26.0,30.42,ESE,107,2.0,5.0,83,0.00,,,0.00,,2013-03-08 00:23:00,
2013-03-07 18:43:00,31.0,27.0,30.42,East,94,2.0,6.0,84,0.00,,,0.00,,2013-03-08 00:43:00,
2013-03-07 18:52:00,31.0,27.0,30.42,ESE,106,3.0,6.0,85,0.00,,,0.00,,2013-03-08 00:52:00,
2013-03-07 19:02:00,31.0,27.0,30.43,ESE,102,1.0,3.0,85,0.00,,,0.00,,2013-03-08 01:02:00,
2013-03-07 19:11:00,31.0,27.0,30.43,ESE,102,1.0,3.0,85,0.00,,,0.00,,2013-03-08 01:11:00,
2013-03-07 19:21:00,31.0,27.0,30.44,SE,132,2.0,6.0,85,0.00,,,0.00,,2013-03-08 01:21:00,
2013-03-07 19:33:00,31.0,27.0,30.44,ESE,105,2.0,5.0,84,0.00,,,0.00,,2013-03-08 01:33:00,
2013-03-07 19:42:00,31.0,27.0,30.44,ESE,105,2.0,5.0,84,0.00,,,0.00,,2013-03-08 01:42:00,
2013-03-07 19:51:00,31.0,27.0,30.43,ESE,114,1.0,3.0,84,0.00,,,0.00,,2013-03-08 01:51:00,
2013-03-07 20:01:00,30.0,27.0,30.43,ESE,114,2.0,4.0,87,0.00,,,0.00,,2013-03-08 02:01:00,
2013-03-07 20:11:00,30.0,27.0,30.43,ESE,114,0.0,1.0,87,0.00,,,0.00,,2013-03-08 02:11:00,
2013-03-07 20:22:00,30.0,27.0,30.43,ESE,114,0.0,1.0,87,0.00,,,0.00,,2013-03-08 02:22:00,
2013-03-07 20:32:00,29.0,26.0,30.43,ESE,114,0.0,0.0,88,0.00,,,0.00,,2013-03-08 02:32:00,
2013-03-07 20:42:00,29.0,26.0,30.43,ESE,114,0.0,0.0,88,0.00,,,0.00,,2013-03-08 02:42:00,
2013-03-07 20:52:00,28.0,25.0,30.43,ESE,114,0.0,1.0,90,0.00,,,0.00,,2013-03-08 02:52:00,
2013-03-07 21:02:00,27.0,24.0,30.43,ESE,114,0.0,2.0,90,0.00,,,0.00,,2013-03-08 03:02:00,
2013-03-07 21:22:00,27.0,24.0,30.43,ESE,114,0.0,0.0,90,0.00,,,0.00,,2013-03-08 03:22:00,
2013-03-07 21:32:00,27.0,24.0,30.43,ESE,114,0.0,0.0,90,0.00,,,0.00,,2013-03-08 03:32:00,
2013-03-07 21:42:00,27.0,24.0,30.43,ESE,114,0.0,0.0,90,0.00,,,0.00,,2013-03-08 03:42:00,
2013-03-07 21:52:00,26.0,23.0,30.43,ESE,114,0.0,0.0,90,0.00,,,0.00,,2013-03-08 03:52:00,
2013-03-07 22:01:00,26.0,23.0,30.43,ESE,114,0.0,0.0,90,0.00,,,0.00,,2013-03-08 04:01:00,
2013-03-07 22:11:00,26.0,23.0,30.43,ESE,114,0.0,0.0,90,0.00,,,0.00,,2013-03-08 04:11:00,
2013-03-07 22:22:00,26.0,24.0,30.44,ESE,114,0.0,0.0,91,0.00,,,0.00,,2013-03-08 04:22:00,
2013-03-07 22:32:00,26.0,24.0,30.44,ESE,114,0.0,0.0,92,0.00,,,0.00,,2013-03-08 04:32:00,
2013-03-07 22:42:00,26.0,24.0,30.44,ESE,114,0.0,0.0,92,0.00,,,0.00,,2013-03-08 04:42:00,
2013-03-07 22:52:00,26.0,24.0,30.44,ESE,114,0.0,0.0,92,0.00,,,0.00,,2013-03-08 04:52:00,
2013-03-07 23:02:00,26.0,24.0,30.44,ESE,114,0.0,0.0,92,0.00,,,0.00,,2013-03-08 05:02:00,
2013-03-07 23:12:00,26.0,24.0,30.44,ESE,114,0.0,0.0,92,0.00,,,0.00,,2013-03-08 05:12:00,
2013-03-07 23:22:00,25.0,23.0,30.45,ESE,114,0.0,0.0,92,0.00,,,0.00,,2013-03-08 05:22:00,
2013-03-07 23:32:00,25.0,23.0,30.45,ESE,114,0.0,0.0,93,0.00,,,0.00,,2013-03-08 05:32:00,
2013-03-07 23:42:00,25.0,23.0,30.45,ESE,114,0.0,0.0,93,0.00,,,0.00,,2013-03-08 05:42:00,
2013-03-07 23:52:00,26.0,24.0,30.45,ESE,114,0.0,0.0,93,0.00,,,0.00,,2013-03-08 05:52:00,